sensor_id;sensor_type;location;lat;lon;timestamp;P1;durP1;ratioP1;P2;durP2;ratioP2
64085;SDS011;50333;47.436;21.390;2022-08-25T00:02:00;8.15;;;6.25;;
64085;SDS011;50333;47.436;21.390;2022-08-25T00:04:32;11.20;;;7.15;;
64085;SDS011;50333;47.436;21.390;2022-08-25T00:07:03;11.50;;;6.70;;
64085;SDS011;50333;47.436;21.390;2022-08-25T00:09:32;9.27;;;7.07;;
64085;SDS011;50333;47.436;21.390;2022-08-25T00:12:02;9.93;;;6.35;;
64085;SDS011;50333;47.436;21.390;2022-08-25T00:14:33;8.13;;;6.82;;
64085;SDS011;50333;47.436;21.390;2022-08-25T00:17:03;13.62;;;6.93;;
64085;SDS011;50333;47.436;21.390;2022-08-25T00:19:34;11.38;;;7.40;;
64085;SDS011;50333;47.436;21.390;2022-08-25T00:24:31;10.95;;;6.97;;
64085;SDS011;50333;47.436;21.390;2022-08-25T00:26:59;11.23;;;7.50;;
64085;SDS011;50333;47.436;21.390;2022-08-25T00:29:28;14.93;;;8.07;;
64085;SDS011;50333;47.436;21.390;2022-08-25T00:31:57;8.77;;;6.97;;
64085;SDS011;50333;47.436;21.390;2022-08-25T00:34:27;10.30;;;6.68;;
64085;SDS011;50333;47.436;21.390;2022-08-25T00:37:00;9.45;;;6.85;;
64085;SDS011;50333;47.436;21.390;2022-08-25T00:39:30;8.75;;;6.37;;
64085;SDS011;50333;47.436;21.390;2022-08-25T00:41:58;10.95;;;6.82;;
64085;SDS011;50333;47.436;21.390;2022-08-25T00:44:27;10.73;;;6.85;;
64085;SDS011;50333;47.436;21.390;2022-08-25T00:46:57;13.02;;;6.45;;
64085;SDS011;50333;47.436;21.390;2022-08-25T00:49:28;15.50;;;7.15;;
64085;SDS011;50333;47.436;21.390;2022-08-25T00:52:09;12.37;;;6.93;;
64085;SDS011;50333;47.436;21.390;2022-08-25T00:54:46;7.95;;;6.20;;
64085;SDS011;50333;47.436;21.390;2022-08-25T00:57:22;15.88;;;6.97;;
64085;SDS011;50333;47.436;21.390;2022-08-25T01:00:10;12.32;;;7.12;;
64085;SDS011;50333;47.436;21.390;2022-08-25T01:02:42;14.10;;;7.57;;
64085;SDS011;50333;47.436;21.390;2022-08-25T01:05:10;9.00;;;7.00;;
64085;SDS011;50333;47.436;21.390;2022-08-25T01:07:38;10.13;;;7.45;;
64085;SDS011;50333;47.436;21.390;2022-08-25T01:10:12;13.62;;;7.90;;
64085;SDS011;50333;47.436;21.390;2022-08-25T01:12:40;12.90;;;7.60;;
64085;SDS011;50333;47.436;21.390;2022-08-25T01:15:08;12.73;;;7.28;;
64085;SDS011;50333;47.436;21.390;2022-08-25T01:17:46;13.57;;;7.50;;
64085;SDS011;50333;47.436;21.390;2022-08-25T01:20:17;11.32;;;7.75;;
64085;SDS011;50333;47.436;21.390;2022-08-25T01:22:47;12.23;;;7.68;;
64085;SDS011;50333;47.436;21.390;2022-08-25T01:28:01;11.43;;;7.50;;
64085;SDS011;50333;47.436;21.390;2022-08-25T01:30:31;10.02;;;7.68;;
64085;SDS011;50333;47.436;21.390;2022-08-25T01:33:03;12.40;;;7.78;;
64085;SDS011;50333;47.436;21.390;2022-08-25T01:35:34;10.93;;;7.32;;
64085;SDS011;50333;47.436;21.390;2022-08-25T01:38:03;11.50;;;7.65;;
64085;SDS011;50333;47.436;21.390;2022-08-25T01:40:32;11.50;;;7.68;;
64085;SDS011;50333;47.436;21.390;2022-08-25T01:45:44;10.52;;;8.20;;
64085;SDS011;50333;47.436;21.390;2022-08-25T01:48:14;9.63;;;7.72;;
64085;SDS011;50333;47.436;21.390;2022-08-25T01:50:42;10.73;;;8.25;;
64085;SDS011;50333;47.436;21.390;2022-08-25T01:53:12;13.95;;;7.65;;
64085;SDS011;50333;47.436;21.390;2022-08-25T01:55:46;11.38;;;7.85;;
64085;SDS011;50333;47.436;21.390;2022-08-25T01:58:33;19.80;;;8.10;;
64085;SDS011;50333;47.436;21.390;2022-08-25T02:01:04;9.65;;;8.30;;
64085;SDS011;50333;47.436;21.390;2022-08-25T02:03:36;14.05;;;8.73;;
64085;SDS011;50333;47.436;21.390;2022-08-25T02:06:12;15.35;;;8.07;;
64085;SDS011;50333;47.436;21.390;2022-08-25T02:08:41;11.85;;;8.25;;
64085;SDS011;50333;47.436;21.390;2022-08-25T02:11:10;15.27;;;8.90;;
64085;SDS011;50333;47.436;21.390;2022-08-25T02:16:08;14.38;;;8.48;;
64085;SDS011;50333;47.436;21.390;2022-08-25T02:18:41;12.00;;;8.30;;
64085;SDS011;50333;47.436;21.390;2022-08-25T02:21:09;15.30;;;8.55;;
64085;SDS011;50333;47.436;21.390;2022-08-25T02:23:37;11.40;;;8.63;;
64085;SDS011;50333;47.436;21.390;2022-08-25T02:26:05;11.00;;;8.15;;
64085;SDS011;50333;47.436;21.390;2022-08-25T02:28:33;12.27;;;8.57;;
64085;SDS011;50333;47.436;21.390;2022-08-25T02:31:01;15.75;;;8.30;;
64085;SDS011;50333;47.436;21.390;2022-08-25T02:33:30;13.27;;;8.67;;
64085;SDS011;50333;47.436;21.390;2022-08-25T02:35:59;13.05;;;8.60;;
64085;SDS011;50333;47.436;21.390;2022-08-25T02:38:28;9.90;;;7.97;;
64085;SDS011;50333;47.436;21.390;2022-08-25T02:40:57;9.60;;;8.00;;
64085;SDS011;50333;47.436;21.390;2022-08-25T02:43:26;11.10;;;8.13;;
64085;SDS011;50333;47.436;21.390;2022-08-25T02:45:55;14.20;;;8.88;;
64085;SDS011;50333;47.436;21.390;2022-08-25T02:48:23;14.50;;;8.40;;
64085;SDS011;50333;47.436;21.390;2022-08-25T02:50:52;11.07;;;7.93;;
64085;SDS011;50333;47.436;21.390;2022-08-25T02:53:20;15.25;;;9.00;;
64085;SDS011;50333;47.436;21.390;2022-08-25T02:55:48;16.42;;;9.02;;
64085;SDS011;50333;47.436;21.390;2022-08-25T02:58:16;18.58;;;9.25;;
64085;SDS011;50333;47.436;21.390;2022-08-25T03:00:44;12.77;;;8.20;;
64085;SDS011;50333;47.436;21.390;2022-08-25T03:03:13;11.70;;;8.20;;
64085;SDS011;50333;47.436;21.390;2022-08-25T03:05:41;12.73;;;8.32;;
64085;SDS011;50333;47.436;21.390;2022-08-25T03:08:09;14.50;;;9.27;;
64085;SDS011;50333;47.436;21.390;2022-08-25T03:10:38;12.57;;;8.27;;
64085;SDS011;50333;47.436;21.390;2022-08-25T03:13:06;13.10;;;8.65;;
64085;SDS011;50333;47.436;21.390;2022-08-25T03:15:33;16.73;;;9.40;;
64085;SDS011;50333;47.436;21.390;2022-08-25T03:18:05;12.63;;;9.20;;
64085;SDS011;50333;47.436;21.390;2022-08-25T03:20:34;13.35;;;8.90;;
64085;SDS011;50333;47.436;21.390;2022-08-25T03:23:02;14.43;;;8.90;;
64085;SDS011;50333;47.436;21.390;2022-08-25T03:25:32;11.80;;;8.60;;
64085;SDS011;50333;47.436;21.390;2022-08-25T03:28:20;12.85;;;9.32;;
64085;SDS011;50333;47.436;21.390;2022-08-25T03:30:56;12.35;;;8.75;;
64085;SDS011;50333;47.436;21.390;2022-08-25T03:33:26;12.68;;;9.15;;
64085;SDS011;50333;47.436;21.390;2022-08-25T03:35:54;12.93;;;8.63;;
64085;SDS011;50333;47.436;21.390;2022-08-25T03:38:23;15.68;;;9.38;;
64085;SDS011;50333;47.436;21.390;2022-08-25T03:40:52;13.13;;;9.68;;
64085;SDS011;50333;47.436;21.390;2022-08-25T03:43:20;12.35;;;8.70;;
64085;SDS011;50333;47.436;21.390;2022-08-25T03:45:48;18.30;;;9.80;;
64085;SDS011;50333;47.436;21.390;2022-08-25T03:48:16;11.77;;;9.43;;
64085;SDS011;50333;47.436;21.390;2022-08-25T03:50:45;20.08;;;9.77;;
64085;SDS011;50333;47.436;21.390;2022-08-25T03:53:18;18.37;;;9.43;;
64085;SDS011;50333;47.436;21.390;2022-08-25T03:55:46;17.60;;;9.05;;
64085;SDS011;50333;47.436;21.390;2022-08-25T03:58:14;18.30;;;8.85;;
64085;SDS011;50333;47.436;21.390;2022-08-25T04:00:43;19.70;;;9.45;;
64085;SDS011;50333;47.436;21.390;2022-08-25T04:03:11;23.17;;;8.48;;
64085;SDS011;50333;47.436;21.390;2022-08-25T04:05:39;18.60;;;8.85;;
64085;SDS011;50333;47.436;21.390;2022-08-25T04:08:07;23.42;;;9.27;;
64085;SDS011;50333;47.436;21.390;2022-08-25T04:10:35;22.48;;;8.95;;
64085;SDS011;50333;47.436;21.390;2022-08-25T04:13:04;21.42;;;8.57;;
64085;SDS011;50333;47.436;21.390;2022-08-25T04:15:32;21.85;;;8.48;;
64085;SDS011;50333;47.436;21.390;2022-08-25T04:18:01;15.18;;;8.07;;
64085;SDS011;50333;47.436;21.390;2022-08-25T04:20:29;20.17;;;7.57;;
64085;SDS011;50333;47.436;21.390;2022-08-25T04:22:57;15.05;;;7.80;;
64085;SDS011;50333;47.436;21.390;2022-08-25T04:27:55;27.25;;;7.95;;
64085;SDS011;50333;47.436;21.390;2022-08-25T04:30:23;19.35;;;7.97;;
64085;SDS011;50333;47.436;21.390;2022-08-25T04:32:51;20.50;;;7.70;;
64085;SDS011;50333;47.436;21.390;2022-08-25T04:35:19;18.58;;;7.80;;
64085;SDS011;50333;47.436;21.390;2022-08-25T04:37:48;19.20;;;7.85;;
64085;SDS011;50333;47.436;21.390;2022-08-25T04:40:16;18.20;;;6.72;;
64085;SDS011;50333;47.436;21.390;2022-08-25T04:42:44;19.65;;;7.53;;
64085;SDS011;50333;47.436;21.390;2022-08-25T04:45:14;18.23;;;7.87;;
64085;SDS011;50333;47.436;21.390;2022-08-25T04:47:42;18.85;;;7.35;;
64085;SDS011;50333;47.436;21.390;2022-08-25T04:50:10;24.08;;;7.07;;
64085;SDS011;50333;47.436;21.390;2022-08-25T04:52:37;26.02;;;7.47;;
64085;SDS011;50333;47.436;21.390;2022-08-25T04:55:06;27.17;;;7.65;;
64085;SDS011;50333;47.436;21.390;2022-08-25T04:57:34;23.87;;;7.82;;
64085;SDS011;50333;47.436;21.390;2022-08-25T05:00:02;22.02;;;7.40;;
64085;SDS011;50333;47.436;21.390;2022-08-25T05:02:31;23.75;;;7.95;;
64085;SDS011;50333;47.436;21.390;2022-08-25T05:04:59;25.55;;;7.68;;
64085;SDS011;50333;47.436;21.390;2022-08-25T05:07:27;23.75;;;7.45;;
64085;SDS011;50333;47.436;21.390;2022-08-25T05:09:55;20.98;;;7.30;;
64085;SDS011;50333;47.436;21.390;2022-08-25T05:12:23;24.35;;;6.82;;
64085;SDS011;50333;47.436;21.390;2022-08-25T05:14:51;32.17;;;7.50;;
64085;SDS011;50333;47.436;21.390;2022-08-25T05:17:20;25.88;;;8.65;;
64085;SDS011;50333;47.436;21.390;2022-08-25T05:19:48;20.33;;;7.18;;
64085;SDS011;50333;47.436;21.390;2022-08-25T05:22:16;27.83;;;7.18;;
64085;SDS011;50333;47.436;21.390;2022-08-25T05:24:44;30.05;;;7.60;;
64085;SDS011;50333;47.436;21.390;2022-08-25T05:27:12;22.80;;;6.68;;
64085;SDS011;50333;47.436;21.390;2022-08-25T05:29:40;18.80;;;6.85;;
64085;SDS011;50333;47.436;21.390;2022-08-25T05:32:08;22.37;;;7.18;;
64085;SDS011;50333;47.436;21.390;2022-08-25T05:34:36;21.23;;;7.03;;
64085;SDS011;50333;47.436;21.390;2022-08-25T05:37:04;18.58;;;6.55;;
64085;SDS011;50333;47.436;21.390;2022-08-25T05:39:38;28.65;;;7.18;;
64085;SDS011;50333;47.436;21.390;2022-08-25T05:42:05;32.40;;;6.37;;
64085;SDS011;50333;47.436;21.390;2022-08-25T05:44:33;23.60;;;6.80;;
64085;SDS011;50333;47.436;21.390;2022-08-25T05:47:01;17.92;;;6.78;;
64085;SDS011;50333;47.436;21.390;2022-08-25T05:49:29;25.40;;;6.57;;
64085;SDS011;50333;47.436;21.390;2022-08-25T05:51:56;27.55;;;7.07;;
64085;SDS011;50333;47.436;21.390;2022-08-25T05:54:25;21.73;;;6.50;;
64085;SDS011;50333;47.436;21.390;2022-08-25T05:56:53;22.98;;;6.28;;
64085;SDS011;50333;47.436;21.390;2022-08-25T05:59:20;23.70;;;6.40;;
64085;SDS011;50333;47.436;21.390;2022-08-25T06:01:49;20.88;;;5.93;;
64085;SDS011;50333;47.436;21.390;2022-08-25T06:07:07;28.02;;;6.65;;
64085;SDS011;50333;47.436;21.390;2022-08-25T06:09:39;27.10;;;7.40;;
64085;SDS011;50333;47.436;21.390;2022-08-25T06:12:08;20.85;;;6.62;;
64085;SDS011;50333;47.436;21.390;2022-08-25T06:14:35;25.77;;;7.30;;
64085;SDS011;50333;47.436;21.390;2022-08-25T06:19:34;18.58;;;6.55;;
64085;SDS011;50333;47.436;21.390;2022-08-25T06:22:05;28.52;;;6.68;;
64085;SDS011;50333;47.436;21.390;2022-08-25T06:24:34;25.90;;;7.25;;
64085;SDS011;50333;47.436;21.390;2022-08-25T06:27:02;28.00;;;7.22;;
64085;SDS011;50333;47.436;21.390;2022-08-25T06:29:29;29.87;;;7.20;;
64085;SDS011;50333;47.436;21.390;2022-08-25T06:31:58;33.25;;;6.32;;
64085;SDS011;50333;47.436;21.390;2022-08-25T06:34:25;20.20;;;6.40;;
64085;SDS011;50333;47.436;21.390;2022-08-25T06:36:53;24.48;;;6.30;;
64085;SDS011;50333;47.436;21.390;2022-08-25T06:39:21;26.05;;;6.55;;
64085;SDS011;50333;47.436;21.390;2022-08-25T06:41:51;27.02;;;6.20;;
64085;SDS011;50333;47.436;21.390;2022-08-25T06:44:20;21.98;;;6.97;;
64085;SDS011;50333;47.436;21.390;2022-08-25T06:46:49;22.90;;;6.73;;
64085;SDS011;50333;47.436;21.390;2022-08-25T06:49:17;21.58;;;6.55;;
64085;SDS011;50333;47.436;21.390;2022-08-25T06:51:45;25.62;;;7.40;;
64085;SDS011;50333;47.436;21.390;2022-08-25T06:54:13;34.38;;;6.45;;
64085;SDS011;50333;47.436;21.390;2022-08-25T06:56:41;24.70;;;6.53;;
64085;SDS011;50333;47.436;21.390;2022-08-25T06:59:09;19.48;;;6.25;;
64085;SDS011;50333;47.436;21.390;2022-08-25T07:01:38;23.70;;;5.78;;
64085;SDS011;50333;47.436;21.390;2022-08-25T07:04:06;30.88;;;6.68;;
64085;SDS011;50333;47.436;21.390;2022-08-25T07:06:39;26.98;;;6.37;;
64085;SDS011;50333;47.436;21.390;2022-08-25T07:09:08;25.85;;;7.15;;
64085;SDS011;50333;47.436;21.390;2022-08-25T07:11:38;20.42;;;6.30;;
64085;SDS011;50333;47.436;21.390;2022-08-25T07:14:08;25.02;;;6.45;;
64085;SDS011;50333;47.436;21.390;2022-08-25T07:16:38;25.12;;;6.32;;
64085;SDS011;50333;47.436;21.390;2022-08-25T07:19:12;23.27;;;6.30;;
64085;SDS011;50333;47.436;21.390;2022-08-25T07:21:41;23.80;;;6.12;;
64085;SDS011;50333;47.436;21.390;2022-08-25T07:24:12;24.95;;;6.43;;
64085;SDS011;50333;47.436;21.390;2022-08-25T07:26:40;29.87;;;6.47;;
64085;SDS011;50333;47.436;21.390;2022-08-25T07:29:12;28.15;;;6.07;;
64085;SDS011;50333;47.436;21.390;2022-08-25T07:31:40;26.75;;;5.75;;
64085;SDS011;50333;47.436;21.390;2022-08-25T07:34:09;24.95;;;6.32;;
64085;SDS011;50333;47.436;21.390;2022-08-25T07:36:56;30.10;;;6.40;;
64085;SDS011;50333;47.436;21.390;2022-08-25T07:39:24;25.98;;;6.37;;
64085;SDS011;50333;47.436;21.390;2022-08-25T07:41:55;16.27;;;5.87;;
64085;SDS011;50333;47.436;21.390;2022-08-25T07:44:23;29.42;;;5.62;;
64085;SDS011;50333;47.436;21.390;2022-08-25T07:46:54;25.05;;;5.68;;
64085;SDS011;50333;47.436;21.390;2022-08-25T07:49:24;20.90;;;5.70;;
64085;SDS011;50333;47.436;21.390;2022-08-25T07:52:06;30.48;;;5.65;;
64085;SDS011;50333;47.436;21.390;2022-08-25T07:54:35;18.70;;;5.68;;
64085;SDS011;50333;47.436;21.390;2022-08-25T07:57:05;20.50;;;4.82;;
64085;SDS011;50333;47.436;21.390;2022-08-25T07:59:34;21.37;;;4.95;;
64085;SDS011;50333;47.436;21.390;2022-08-25T08:02:10;18.35;;;5.00;;
64085;SDS011;50333;47.436;21.390;2022-08-25T08:04:47;18.87;;;5.28;;
64085;SDS011;50333;47.436;21.390;2022-08-25T08:07:20;16.65;;;4.30;;
64085;SDS011;50333;47.436;21.390;2022-08-25T08:10:09;21.83;;;4.40;;
64085;SDS011;50333;47.436;21.390;2022-08-25T08:12:59;18.23;;;4.35;;
64085;SDS011;50333;47.436;21.390;2022-08-25T08:15:29;17.20;;;4.18;;
64085;SDS011;50333;47.436;21.390;2022-08-25T08:17:57;26.02;;;4.80;;
64085;SDS011;50333;47.436;21.390;2022-08-25T08:20:26;15.90;;;4.40;;
64085;SDS011;50333;47.436;21.390;2022-08-25T08:22:55;19.87;;;4.10;;
64085;SDS011;50333;47.436;21.390;2022-08-25T08:25:23;20.90;;;4.20;;
64085;SDS011;50333;47.436;21.390;2022-08-25T08:27:53;19.17;;;3.90;;
64085;SDS011;50333;47.436;21.390;2022-08-25T08:30:23;16.20;;;3.63;;
64085;SDS011;50333;47.436;21.390;2022-08-25T08:35:39;15.93;;;4.28;;
64085;SDS011;50333;47.436;21.390;2022-08-25T08:38:08;18.27;;;3.90;;
64085;SDS011;50333;47.436;21.390;2022-08-25T08:41:06;18.08;;;4.50;;
64085;SDS011;50333;47.436;21.390;2022-08-25T08:55:31;14.93;;;3.80;;
64085;SDS011;50333;47.436;21.390;2022-08-25T08:58:11;16.92;;;3.58;;
64085;SDS011;50333;47.436;21.390;2022-08-25T09:00:53;27.77;;;4.03;;
64085;SDS011;50333;47.436;21.390;2022-08-25T09:06:09;21.58;;;4.07;;
64085;SDS011;50333;47.436;21.390;2022-08-25T09:08:51;15.75;;;3.35;;
64085;SDS011;50333;47.436;21.390;2022-08-25T09:17:04;15.60;;;3.55;;
64085;SDS011;50333;47.436;21.390;2022-08-25T09:25:26;26.50;;;4.05;;
64085;SDS011;50333;47.436;21.390;2022-08-25T09:31:14;21.30;;;3.53;;
64085;SDS011;50333;47.436;21.390;2022-08-25T09:33:55;16.17;;;4.00;;
64085;SDS011;50333;47.436;21.390;2022-08-25T09:36:24;31.23;;;4.70;;
64085;SDS011;50333;47.436;21.390;2022-08-25T09:38:53;25.92;;;4.35;;
64085;SDS011;50333;47.436;21.390;2022-08-25T09:44:19;22.10;;;4.25;;
64085;SDS011;50333;47.436;21.390;2022-08-25T09:46:57;29.30;;;4.95;;
64085;SDS011;50333;47.436;21.390;2022-08-25T09:52:24;26.02;;;4.50;;
64085;SDS011;50333;47.436;21.390;2022-08-25T09:54:59;22.50;;;5.47;;
64085;SDS011;50333;47.436;21.390;2022-08-25T09:57:35;22.40;;;4.72;;
64085;SDS011;50333;47.436;21.390;2022-08-25T10:03:03;25.90;;;4.72;;
64085;SDS011;50333;47.436;21.390;2022-08-25T10:08:21;36.22;;;4.70;;
64085;SDS011;50333;47.436;21.390;2022-08-25T10:10:59;32.13;;;4.45;;
64085;SDS011;50333;47.436;21.390;2022-08-25T10:13:39;25.42;;;3.97;;
64085;SDS011;50333;47.436;21.390;2022-08-25T10:16:22;25.73;;;4.32;;
64085;SDS011;50333;47.436;21.390;2022-08-25T10:19:00;33.47;;;4.00;;
64085;SDS011;50333;47.436;21.390;2022-08-25T10:21:28;32.35;;;4.60;;
64085;SDS011;50333;47.436;21.390;2022-08-25T10:23:56;25.65;;;4.05;;
64085;SDS011;50333;47.436;21.390;2022-08-25T10:29:24;32.30;;;4.75;;
64085;SDS011;50333;47.436;21.390;2022-08-25T10:34:48;15.45;;;3.30;;
64085;SDS011;50333;47.436;21.390;2022-08-25T10:40:12;25.75;;;3.87;;
64085;SDS011;50333;47.436;21.390;2022-08-25T10:45:25;20.85;;;4.12;;
64085;SDS011;50333;47.436;21.390;2022-08-25T10:56:38;24.55;;;4.47;;
64085;SDS011;50333;47.436;21.390;2022-08-25T10:59:46;27.20;;;3.65;;
64085;SDS011;50333;47.436;21.390;2022-08-25T11:05:22;32.50;;;4.07;;
64085;SDS011;50333;47.436;21.390;2022-08-25T11:08:10;26.12;;;4.25;;
64085;SDS011;50333;47.436;21.390;2022-08-25T11:13:21;29.43;;;3.90;;
64085;SDS011;50333;47.436;21.390;2022-08-25T11:16:00;33.10;;;4.43;;
64085;SDS011;50333;47.436;21.390;2022-08-25T11:18:56;22.45;;;3.92;;
64085;SDS011;50333;47.436;21.390;2022-08-25T11:27:24;40.28;;;4.32;;
64085;SDS011;50333;47.436;21.390;2022-08-25T11:30:15;23.62;;;3.92;;
64085;SDS011;50333;47.436;21.390;2022-08-25T11:32:49;20.40;;;4.12;;
64085;SDS011;50333;47.436;21.390;2022-08-25T11:43:27;25.42;;;3.47;;
64085;SDS011;50333;47.436;21.390;2022-08-25T11:46:33;16.87;;;3.33;;
64085;SDS011;50333;47.436;21.390;2022-08-25T11:49:31;17.87;;;3.87;;
64085;SDS011;50333;47.436;21.390;2022-08-25T11:52:08;28.17;;;4.03;;
64085;SDS011;50333;47.436;21.390;2022-08-25T11:55:21;31.33;;;3.78;;
64085;SDS011;50333;47.436;21.390;2022-08-25T12:01:58;24.87;;;4.03;;
64085;SDS011;50333;47.436;21.390;2022-08-25T12:14:54;24.92;;;3.65;;
64085;SDS011;50333;47.436;21.390;2022-08-25T12:17:41;16.42;;;3.50;;
64085;SDS011;50333;47.436;21.390;2022-08-25T12:20:09;16.48;;;3.30;;
64085;SDS011;50333;47.436;21.390;2022-08-25T12:22:38;19.65;;;3.50;;
64085;SDS011;50333;47.436;21.390;2022-08-25T12:25:13;24.70;;;3.92;;
64085;SDS011;50333;47.436;21.390;2022-08-25T12:28:02;22.10;;;3.67;;
64085;SDS011;50333;47.436;21.390;2022-08-25T12:30:45;30.48;;;4.40;;
64085;SDS011;50333;47.436;21.390;2022-08-25T12:33:42;19.67;;;3.78;;
64085;SDS011;50333;47.436;21.390;2022-08-25T12:36:30;26.02;;;3.70;;
64085;SDS011;50333;47.436;21.390;2022-08-25T12:39:14;19.25;;;3.78;;
64085;SDS011;50333;47.436;21.390;2022-08-25T12:41:54;15.38;;;3.45;;
64085;SDS011;50333;47.436;21.390;2022-08-25T12:45:30;21.35;;;3.80;;
64085;SDS011;50333;47.436;21.390;2022-08-25T12:47:36;21.80;;;3.37;;
64085;SDS011;50333;47.436;21.390;2022-08-25T12:53:11;17.00;;;3.47;;
64085;SDS011;50333;47.436;21.390;2022-08-25T12:55:46;23.65;;;3.75;;
64085;SDS011;50333;47.436;21.390;2022-08-25T12:58:18;20.27;;;3.05;;
64085;SDS011;50333;47.436;21.390;2022-08-25T13:06:53;19.17;;;3.03;;
64085;SDS011;50333;47.436;21.390;2022-08-25T13:15:12;21.52;;;3.30;;
64085;SDS011;50333;47.436;21.390;2022-08-25T13:17:51;13.35;;;3.03;;
64085;SDS011;50333;47.436;21.390;2022-08-25T13:20:24;22.80;;;3.45;;
64085;SDS011;50333;47.436;21.390;2022-08-25T13:22:56;29.92;;;4.12;;
64085;SDS011;50333;47.436;21.390;2022-08-25T13:25:28;12.85;;;2.87;;
64085;SDS011;50333;47.436;21.390;2022-08-25T13:28:01;18.33;;;3.25;;
64085;SDS011;50333;47.436;21.390;2022-08-25T13:30:37;17.48;;;2.58;;
64085;SDS011;50333;47.436;21.390;2022-08-25T13:33:19;24.23;;;2.97;;
64085;SDS011;50333;47.436;21.390;2022-08-25T13:35:52;21.87;;;2.70;;
64085;SDS011;50333;47.436;21.390;2022-08-25T13:38:41;12.93;;;2.92;;
64085;SDS011;50333;47.436;21.390;2022-08-25T13:41:17;28.87;;;3.17;;
64085;SDS011;50333;47.436;21.390;2022-08-25T13:43:46;21.90;;;2.95;;
64085;SDS011;50333;47.436;21.390;2022-08-25T13:46:19;24.73;;;3.00;;
64085;SDS011;50333;47.436;21.390;2022-08-25T13:48:48;17.02;;;3.20;;
64085;SDS011;50333;47.436;21.390;2022-08-25T13:51:19;27.80;;;3.40;;
64085;SDS011;50333;47.436;21.390;2022-08-25T13:53:50;10.85;;;2.75;;
64085;SDS011;50333;47.436;21.390;2022-08-25T14:01:52;21.37;;;3.45;;
64085;SDS011;50333;47.436;21.390;2022-08-25T14:04:27;14.98;;;2.90;;
64085;SDS011;50333;47.436;21.390;2022-08-25T14:12:37;15.57;;;2.95;;
64085;SDS011;50333;47.436;21.390;2022-08-25T14:15:25;23.10;;;3.25;;
64085;SDS011;50333;47.436;21.390;2022-08-25T14:18:08;20.15;;;3.03;;
64085;SDS011;50333;47.436;21.390;2022-08-25T14:20:46;16.33;;;2.85;;
64085;SDS011;50333;47.436;21.390;2022-08-25T14:23:18;24.05;;;2.92;;
64085;SDS011;50333;47.436;21.390;2022-08-25T14:25:49;14.93;;;2.83;;
64085;SDS011;50333;47.436;21.390;2022-08-25T14:28:19;20.20;;;3.10;;
64085;SDS011;50333;47.436;21.390;2022-08-25T14:30:57;20.55;;;3.00;;
64085;SDS011;50333;47.436;21.390;2022-08-25T14:33:32;15.73;;;2.85;;
64085;SDS011;50333;47.436;21.390;2022-08-25T14:36:04;18.02;;;3.12;;
64085;SDS011;50333;47.436;21.390;2022-08-25T14:38:33;15.32;;;2.78;;
64085;SDS011;50333;47.436;21.390;2022-08-25T14:41:05;16.05;;;2.85;;
64085;SDS011;50333;47.436;21.390;2022-08-25T14:43:38;17.20;;;2.30;;
64085;SDS011;50333;47.436;21.390;2022-08-25T14:46:09;18.62;;;3.12;;
64085;SDS011;50333;47.436;21.390;2022-08-25T14:48:46;17.80;;;3.08;;
64085;SDS011;50333;47.436;21.390;2022-08-25T14:51:18;15.65;;;2.80;;
64085;SDS011;50333;47.436;21.390;2022-08-25T14:53:46;20.40;;;3.12;;
64085;SDS011;50333;47.436;21.390;2022-08-25T14:56:14;14.90;;;2.45;;
64085;SDS011;50333;47.436;21.390;2022-08-25T14:58:44;13.98;;;2.53;;
64085;SDS011;50333;47.436;21.390;2022-08-25T15:01:20;15.23;;;2.53;;
64085;SDS011;50333;47.436;21.390;2022-08-25T15:04:08;23.05;;;2.72;;
64085;SDS011;50333;47.436;21.390;2022-08-25T15:06:41;12.82;;;3.28;;
64085;SDS011;50333;47.436;21.390;2022-08-25T15:09:12;13.20;;;2.30;;
64085;SDS011;50333;47.436;21.390;2022-08-25T15:11:43;10.68;;;1.95;;
64085;SDS011;50333;47.436;21.390;2022-08-25T15:14:17;18.45;;;3.28;;
64085;SDS011;50333;47.436;21.390;2022-08-25T15:16:59;15.10;;;2.65;;
64085;SDS011;50333;47.436;21.390;2022-08-25T15:19:28;14.77;;;2.33;;
64085;SDS011;50333;47.436;21.390;2022-08-25T15:21:56;7.82;;;2.40;;
64085;SDS011;50333;47.436;21.390;2022-08-25T15:24:27;16.60;;;2.70;;
64085;SDS011;50333;47.436;21.390;2022-08-25T15:26:59;19.67;;;2.72;;
64085;SDS011;50333;47.436;21.390;2022-08-25T15:29:31;18.40;;;2.90;;
64085;SDS011;50333;47.436;21.390;2022-08-25T15:32:02;15.15;;;2.75;;
64085;SDS011;50333;47.436;21.390;2022-08-25T15:34:33;14.40;;;2.60;;
64085;SDS011;50333;47.436;21.390;2022-08-25T15:37:13;12.10;;;2.95;;
64085;SDS011;50333;47.436;21.390;2022-08-25T15:39:43;12.95;;;2.80;;
64085;SDS011;50333;47.436;21.390;2022-08-25T15:42:12;22.00;;;2.90;;
64085;SDS011;50333;47.436;21.390;2022-08-25T15:44:40;19.62;;;2.65;;
64085;SDS011;50333;47.436;21.390;2022-08-25T15:47:20;13.90;;;2.60;;
64085;SDS011;50333;47.436;21.390;2022-08-25T15:49:51;10.38;;;2.47;;
64085;SDS011;50333;47.436;21.390;2022-08-25T15:52:30;20.70;;;2.40;;
64085;SDS011;50333;47.436;21.390;2022-08-25T15:55:12;21.92;;;2.58;;
64085;SDS011;50333;47.436;21.390;2022-08-25T15:57:41;22.95;;;2.75;;
64085;SDS011;50333;47.436;21.390;2022-08-25T16:00:10;10.57;;;2.75;;
64085;SDS011;50333;47.436;21.390;2022-08-25T16:02:43;21.85;;;3.10;;
64085;SDS011;50333;47.436;21.390;2022-08-25T16:05:12;24.48;;;2.87;;
64085;SDS011;50333;47.436;21.390;2022-08-25T16:07:43;9.63;;;2.60;;
64085;SDS011;50333;47.436;21.390;2022-08-25T16:10:18;15.65;;;2.35;;
64085;SDS011;50333;47.436;21.390;2022-08-25T16:12:46;11.40;;;2.50;;
64085;SDS011;50333;47.436;21.390;2022-08-25T16:15:14;15.90;;;2.60;;
64085;SDS011;50333;47.436;21.390;2022-08-25T16:17:42;20.40;;;2.33;;
64085;SDS011;50333;47.436;21.390;2022-08-25T16:20:17;10.80;;;2.45;;
64085;SDS011;50333;47.436;21.390;2022-08-25T16:22:49;15.52;;;2.53;;
64085;SDS011;50333;47.436;21.390;2022-08-25T16:25:17;13.00;;;2.65;;
64085;SDS011;50333;47.436;21.390;2022-08-25T16:27:46;17.42;;;2.58;;
64085;SDS011;50333;47.436;21.390;2022-08-25T16:30:14;22.33;;;3.25;;
64085;SDS011;50333;47.436;21.390;2022-08-25T16:32:44;10.25;;;2.70;;
64085;SDS011;50333;47.436;21.390;2022-08-25T16:35:12;20.05;;;2.90;;
64085;SDS011;50333;47.436;21.390;2022-08-25T16:37:40;11.12;;;2.58;;
64085;SDS011;50333;47.436;21.390;2022-08-25T16:40:09;11.32;;;2.45;;
64085;SDS011;50333;47.436;21.390;2022-08-25T16:42:41;23.58;;;3.20;;
64085;SDS011;50333;47.436;21.390;2022-08-25T16:45:09;15.27;;;2.53;;
64085;SDS011;50333;47.436;21.390;2022-08-25T16:47:38;8.85;;;3.00;;
64085;SDS011;50333;47.436;21.390;2022-08-25T16:50:09;12.63;;;2.28;;
64085;SDS011;50333;47.436;21.390;2022-08-25T16:52:37;11.85;;;2.70;;
64085;SDS011;50333;47.436;21.390;2022-08-25T16:55:26;7.45;;;2.67;;
64085;SDS011;50333;47.436;21.390;2022-08-25T16:58:05;13.18;;;2.72;;
64085;SDS011;50333;47.436;21.390;2022-08-25T17:00:35;10.73;;;2.80;;
64085;SDS011;50333;47.436;21.390;2022-08-25T17:03:05;9.55;;;3.05;;
64085;SDS011;50333;47.436;21.390;2022-08-25T17:05:38;14.23;;;2.92;;
64085;SDS011;50333;47.436;21.390;2022-08-25T17:08:07;11.57;;;2.85;;
64085;SDS011;50333;47.436;21.390;2022-08-25T17:10:54;13.50;;;2.55;;
64085;SDS011;50333;47.436;21.390;2022-08-25T17:13:31;17.65;;;3.15;;